sensor_id;sensor_type;location;lat;lon;timestamp;P1;durP1;ratioP1;P2;durP2;ratioP2
65328;SDS011;51941;52.210;5.158;2023-05-15T00:00:57;30.33;;;20.48;;
65328;SDS011;51941;52.210;5.158;2023-05-15T00:03:24;32.63;;;19.38;;
65328;SDS011;51941;52.210;5.158;2023-05-15T00:05:51;34.20;;;20.80;;
65328;SDS011;51941;52.210;5.158;2023-05-15T00:08:17;36.47;;;22.38;;
65328;SDS011;51941;52.210;5.158;2023-05-15T00:10:45;33.75;;;21.65;;
65328;SDS011;51941;52.210;5.158;2023-05-15T00:13:12;35.20;;;22.08;;
65328;SDS011;51941;52.210;5.158;2023-05-15T00:15:39;33.47;;;21.17;;
65328;SDS011;51941;52.210;5.158;2023-05-15T00:18:05;27.75;;;20.02;;
65328;SDS011;51941;52.210;5.158;2023-05-15T00:20:32;34.58;;;22.77;;
65328;SDS011;51941;52.210;5.158;2023-05-15T00:22:59;31.33;;;19.52;;
65328;SDS011;51941;52.210;5.158;2023-05-15T00:25:25;33.55;;;21.40;;
65328;SDS011;51941;52.210;5.158;2023-05-15T00:27:53;34.53;;;20.92;;
65328;SDS011;51941;52.210;5.158;2023-05-15T00:30:20;31.95;;;20.63;;
65328;SDS011;51941;52.210;5.158;2023-05-15T00:32:47;37.13;;;24.02;;
65328;SDS011;51941;52.210;5.158;2023-05-15T00:35:16;35.05;;;22.35;;
65328;SDS011;51941;52.210;5.158;2023-05-15T00:37:43;33.25;;;20.48;;
65328;SDS011;51941;52.210;5.158;2023-05-15T00:40:10;32.55;;;21.33;;
65328;SDS011;51941;52.210;5.158;2023-05-15T00:42:44;32.83;;;20.50;;
65328;SDS011;51941;52.210;5.158;2023-05-15T00:45:13;29.25;;;19.42;;
65328;SDS011;51941;52.210;5.158;2023-05-15T00:47:40;33.92;;;21.48;;
65328;SDS011;51941;52.210;5.158;2023-05-15T00:50:09;30.30;;;20.45;;
65328;SDS011;51941;52.210;5.158;2023-05-15T00:52:36;34.05;;;21.77;;
65328;SDS011;51941;52.210;5.158;2023-05-15T00:55:03;32.72;;;21.20;;
65328;SDS011;51941;52.210;5.158;2023-05-15T00:57:31;35.78;;;21.65;;
65328;SDS011;51941;52.210;5.158;2023-05-15T00:59:59;33.10;;;22.35;;
65328;SDS011;51941;52.210;5.158;2023-05-15T01:02:27;36.95;;;23.13;;
65328;SDS011;51941;52.210;5.158;2023-05-15T01:04:54;35.08;;;22.17;;
65328;SDS011;51941;52.210;5.158;2023-05-15T01:07:21;31.50;;;21.55;;
65328;SDS011;51941;52.210;5.158;2023-05-15T01:09:47;33.53;;;21.40;;
65328;SDS011;51941;52.210;5.158;2023-05-15T01:12:15;29.38;;;20.92;;
65328;SDS011;51941;52.210;5.158;2023-05-15T01:14:43;28.30;;;19.95;;
65328;SDS011;51941;52.210;5.158;2023-05-15T01:17:10;27.92;;;19.05;;
65328;SDS011;51941;52.210;5.158;2023-05-15T01:19:42;31.55;;;21.05;;
65328;SDS011;51941;52.210;5.158;2023-05-15T01:22:17;28.75;;;20.60;;
65328;SDS011;51941;52.210;5.158;2023-05-15T01:28:02;32.63;;;22.25;;
65328;SDS011;51941;52.210;5.158;2023-05-15T01:30:31;34.08;;;22.80;;
65328;SDS011;51941;52.210;5.158;2023-05-15T01:33:02;39.37;;;24.13;;
65328;SDS011;51941;52.210;5.158;2023-05-15T01:35:32;36.60;;;24.25;;
65328;SDS011;51941;52.210;5.158;2023-05-15T01:38:07;47.92;;;29.42;;
65328;SDS011;51941;52.210;5.158;2023-05-15T01:40:38;43.38;;;27.33;;
65328;SDS011;51941;52.210;5.158;2023-05-15T01:43:10;49.45;;;29.92;;
65328;SDS011;51941;52.210;5.158;2023-05-15T01:45:41;46.25;;;30.08;;
65328;SDS011;51941;52.210;5.158;2023-05-15T01:48:08;54.53;;;33.25;;
65328;SDS011;51941;52.210;5.158;2023-05-15T01:50:37;52.73;;;33.13;;
65328;SDS011;51941;52.210;5.158;2023-05-15T01:53:05;52.75;;;34.13;;
65328;SDS011;51941;52.210;5.158;2023-05-15T01:55:34;49.75;;;33.33;;
65328;SDS011;51941;52.210;5.158;2023-05-15T01:58:02;58.83;;;35.38;;
65328;SDS011;51941;52.210;5.158;2023-05-15T02:00:32;54.75;;;34.13;;
65328;SDS011;51941;52.210;5.158;2023-05-15T02:02:59;53.53;;;34.78;;
65328;SDS011;51941;52.210;5.158;2023-05-15T02:05:27;55.88;;;35.08;;
65328;SDS011;51941;52.210;5.158;2023-05-15T02:07:55;57.08;;;34.28;;
65328;SDS011;51941;52.210;5.158;2023-05-15T02:10:22;54.20;;;33.78;;
65328;SDS011;51941;52.210;5.158;2023-05-15T02:15:20;49.53;;;32.63;;
65328;SDS011;51941;52.210;5.158;2023-05-15T02:17:49;60.10;;;36.85;;
65328;SDS011;51941;52.210;5.158;2023-05-15T02:20:16;56.03;;;33.65;;
65328;SDS011;51941;52.210;5.158;2023-05-15T02:22:43;53.95;;;33.38;;
65328;SDS011;51941;52.210;5.158;2023-05-15T02:25:09;50.30;;;30.77;;
65328;SDS011;51941;52.210;5.158;2023-05-15T02:27:37;50.03;;;30.13;;
65328;SDS011;51941;52.210;5.158;2023-05-15T02:30:15;55.65;;;34.67;;
65328;SDS011;51941;52.210;5.158;2023-05-15T02:32:55;55.88;;;32.65;;
65328;SDS011;51941;52.210;5.158;2023-05-15T02:35:31;59.97;;;33.47;;
65328;SDS011;51941;52.210;5.158;2023-05-15T02:38:05;57.20;;;32.58;;
65328;SDS011;51941;52.210;5.158;2023-05-15T02:40:35;48.55;;;31.35;;
65328;SDS011;51941;52.210;5.158;2023-05-15T02:43:04;62.55;;;35.83;;
65328;SDS011;51941;52.210;5.158;2023-05-15T02:45:32;55.45;;;33.15;;
65328;SDS011;51941;52.210;5.158;2023-05-15T02:48:01;50.15;;;31.92;;
65328;SDS011;51941;52.210;5.158;2023-05-15T02:50:30;53.10;;;32.63;;
65328;SDS011;51941;52.210;5.158;2023-05-15T02:53:00;55.90;;;32.47;;
65328;SDS011;51941;52.210;5.158;2023-05-15T02:55:28;61.10;;;33.10;;
65328;SDS011;51941;52.210;5.158;2023-05-15T02:57:54;61.47;;;33.65;;
65328;SDS011;51941;52.210;5.158;2023-05-15T03:00:22;56.08;;;33.63;;
65328;SDS011;51941;52.210;5.158;2023-05-15T03:02:48;81.45;;;43.10;;
65328;SDS011;51941;52.210;5.158;2023-05-15T03:05:16;66.78;;;35.85;;
65328;SDS011;51941;52.210;5.158;2023-05-15T03:07:43;71.47;;;36.95;;
65328;SDS011;51941;52.210;5.158;2023-05-15T03:10:10;73.85;;;37.67;;
65328;SDS011;51941;52.210;5.158;2023-05-15T03:12:37;70.03;;;36.67;;
65328;SDS011;51941;52.210;5.158;2023-05-15T03:15:04;100.07;;;39.47;;
65328;SDS011;51941;52.210;5.158;2023-05-15T03:17:32;76.82;;;38.08;;
65328;SDS011;51941;52.210;5.158;2023-05-15T03:19:58;80.22;;;38.58;;
65328;SDS011;51941;52.210;5.158;2023-05-15T03:22:26;70.88;;;33.83;;
65328;SDS011;51941;52.210;5.158;2023-05-15T03:24:53;71.88;;;33.80;;
65328;SDS011;51941;52.210;5.158;2023-05-15T03:27:20;79.85;;;32.53;;
65328;SDS011;51941;52.210;5.158;2023-05-15T03:29:46;102.35;;;34.88;;
65328;SDS011;51941;52.210;5.158;2023-05-15T03:32:15;71.07;;;32.83;;
65328;SDS011;51941;52.210;5.158;2023-05-15T03:34:41;91.38;;;39.40;;
65328;SDS011;51941;52.210;5.158;2023-05-15T03:37:08;85.00;;;37.60;;
65328;SDS011;51941;52.210;5.158;2023-05-15T03:39:36;89.50;;;41.17;;
65328;SDS011;51941;52.210;5.158;2023-05-15T03:42:03;78.57;;;35.13;;
65328;SDS011;51941;52.210;5.158;2023-05-15T03:44:30;69.90;;;33.05;;
65328;SDS011;51941;52.210;5.158;2023-05-15T03:46:57;97.03;;;41.03;;
65328;SDS011;51941;52.210;5.158;2023-05-15T03:49:24;79.63;;;33.78;;
65328;SDS011;51941;52.210;5.158;2023-05-15T03:51:51;75.75;;;36.17;;
65328;SDS011;51941;52.210;5.158;2023-05-15T03:54:17;97.50;;;41.85;;
65328;SDS011;51941;52.210;5.158;2023-05-15T03:56:45;98.88;;;45.08;;
65328;SDS011;51941;52.210;5.158;2023-05-15T03:59:12;94.15;;;43.20;;
65328;SDS011;51941;52.210;5.158;2023-05-15T04:01:39;80.90;;;39.13;;
65328;SDS011;51941;52.210;5.158;2023-05-15T04:04:05;76.72;;;36.05;;
65328;SDS011;51941;52.210;5.158;2023-05-15T04:06:32;70.50;;;32.97;;
65328;SDS011;51941;52.210;5.158;2023-05-15T04:08:59;64.53;;;34.10;;
65328;SDS011;51941;52.210;5.158;2023-05-15T04:11:25;62.08;;;31.80;;
65328;SDS011;51941;52.210;5.158;2023-05-15T04:13:54;69.15;;;35.67;;
65328;SDS011;51941;52.210;5.158;2023-05-15T04:16:20;82.90;;;39.33;;
65328;SDS011;51941;52.210;5.158;2023-05-15T04:18:47;68.88;;;36.10;;
65328;SDS011;51941;52.210;5.158;2023-05-15T04:21:13;65.50;;;34.72;;
65328;SDS011;51941;52.210;5.158;2023-05-15T04:23:40;81.90;;;41.42;;
65328;SDS011;51941;52.210;5.158;2023-05-15T04:26:07;83.10;;;39.72;;
65328;SDS011;51941;52.210;5.158;2023-05-15T04:28:34;78.60;;;39.60;;
65328;SDS011;51941;52.210;5.158;2023-05-15T04:31:02;68.35;;;38.78;;
65328;SDS011;51941;52.210;5.158;2023-05-15T04:33:28;68.03;;;37.38;;
65328;SDS011;51941;52.210;5.158;2023-05-15T04:35:55;71.65;;;37.88;;
65328;SDS011;51941;52.210;5.158;2023-05-15T04:38:22;60.45;;;34.22;;
65328;SDS011;51941;52.210;5.158;2023-05-15T04:40:48;66.15;;;39.47;;
65328;SDS011;51941;52.210;5.158;2023-05-15T04:43:15;72.70;;;42.30;;
65328;SDS011;51941;52.210;5.158;2023-05-15T04:45:42;66.70;;;36.75;;
65328;SDS011;51941;52.210;5.158;2023-05-15T04:48:10;61.85;;;38.00;;
65328;SDS011;51941;52.210;5.158;2023-05-15T04:50:36;65.32;;;41.40;;
65328;SDS011;51941;52.210;5.158;2023-05-15T04:53:03;62.20;;;35.90;;
65328;SDS011;51941;52.210;5.158;2023-05-15T04:55:30;64.53;;;37.97;;
65328;SDS011;51941;52.210;5.158;2023-05-15T04:57:57;62.95;;;38.03;;
65328;SDS011;51941;52.210;5.158;2023-05-15T05:00:23;56.10;;;33.72;;
65328;SDS011;51941;52.210;5.158;2023-05-15T05:02:54;65.30;;;38.70;;
65328;SDS011;51941;52.210;5.158;2023-05-15T05:05:22;58.30;;;37.85;;
65328;SDS011;51941;52.210;5.158;2023-05-15T05:07:49;59.05;;;34.78;;
65328;SDS011;51941;52.210;5.158;2023-05-15T05:10:16;52.22;;;32.83;;
65328;SDS011;51941;52.210;5.158;2023-05-15T05:12:43;49.13;;;32.80;;
65328;SDS011;51941;52.210;5.158;2023-05-15T05:15:09;51.03;;;31.50;;
65328;SDS011;51941;52.210;5.158;2023-05-15T05:17:36;45.92;;;30.38;;
65328;SDS011;51941;52.210;5.158;2023-05-15T05:20:03;43.50;;;28.38;;
65328;SDS011;51941;52.210;5.158;2023-05-15T05:25:00;44.85;;;28.52;;
65328;SDS011;51941;52.210;5.158;2023-05-15T05:27:27;37.70;;;26.05;;
65328;SDS011;51941;52.210;5.158;2023-05-15T05:29:54;36.17;;;23.98;;
65328;SDS011;51941;52.210;5.158;2023-05-15T05:32:21;38.88;;;26.40;;
65328;SDS011;51941;52.210;5.158;2023-05-15T05:34:47;38.63;;;27.08;;
65328;SDS011;51941;52.210;5.158;2023-05-15T05:37:14;44.55;;;28.15;;
65328;SDS011;51941;52.210;5.158;2023-05-15T05:39:42;32.63;;;24.98;;
65328;SDS011;51941;52.210;5.158;2023-05-15T05:42:09;35.75;;;26.13;;
65328;SDS011;51941;52.210;5.158;2023-05-15T05:44:36;34.92;;;27.45;;
65328;SDS011;51941;52.210;5.158;2023-05-15T05:47:02;41.15;;;28.83;;
65328;SDS011;51941;52.210;5.158;2023-05-15T05:49:29;32.25;;;25.58;;
65328;SDS011;51941;52.210;5.158;2023-05-15T05:51:56;39.53;;;27.88;;
65328;SDS011;51941;52.210;5.158;2023-05-15T05:54:30;38.33;;;27.70;;
65328;SDS011;51941;52.210;5.158;2023-05-15T05:56:58;32.60;;;25.52;;
65328;SDS011;51941;52.210;5.158;2023-05-15T05:59:25;37.15;;;27.45;;
65328;SDS011;51941;52.210;5.158;2023-05-15T06:01:53;40.42;;;27.42;;
65328;SDS011;51941;52.210;5.158;2023-05-15T06:04:20;36.20;;;26.00;;
65328;SDS011;51941;52.210;5.158;2023-05-15T06:06:46;38.08;;;27.90;;
65328;SDS011;51941;52.210;5.158;2023-05-15T06:09:14;41.60;;;28.52;;
65328;SDS011;51941;52.210;5.158;2023-05-15T06:11:40;42.58;;;28.27;;
65328;SDS011;51941;52.210;5.158;2023-05-15T06:14:08;37.53;;;27.80;;
65328;SDS011;51941;52.210;5.158;2023-05-15T06:16:35;37.67;;;27.08;;
65328;SDS011;51941;52.210;5.158;2023-05-15T06:19:02;33.67;;;25.50;;
65328;SDS011;51941;52.210;5.158;2023-05-15T06:21:29;34.28;;;25.10;;
65328;SDS011;51941;52.210;5.158;2023-05-15T06:23:55;38.10;;;27.63;;
65328;SDS011;51941;52.210;5.158;2023-05-15T06:26:22;43.00;;;28.42;;
65328;SDS011;51941;52.210;5.158;2023-05-15T06:28:49;43.28;;;30.42;;
65328;SDS011;51941;52.210;5.158;2023-05-15T06:31:18;43.95;;;29.45;;
65328;SDS011;51941;52.210;5.158;2023-05-15T06:33:44;45.90;;;31.30;;
65328;SDS011;51941;52.210;5.158;2023-05-15T06:36:11;39.42;;;29.88;;
65328;SDS011;51941;52.210;5.158;2023-05-15T06:38:38;46.47;;;29.85;;
65328;SDS011;51941;52.210;5.158;2023-05-15T06:41:04;35.10;;;28.08;;
65328;SDS011;51941;52.210;5.158;2023-05-15T06:43:31;40.30;;;31.08;;
65328;SDS011;51941;52.210;5.158;2023-05-15T06:45:58;45.95;;;29.60;;
65328;SDS011;51941;52.210;5.158;2023-05-15T06:48:26;42.08;;;29.73;;
65328;SDS011;51941;52.210;5.158;2023-05-15T06:50:53;45.10;;;30.58;;
65328;SDS011;51941;52.210;5.158;2023-05-15T06:53:19;43.50;;;30.90;;
65328;SDS011;51941;52.210;5.158;2023-05-15T06:55:46;43.30;;;31.75;;
65328;SDS011;51941;52.210;5.158;2023-05-15T06:58:13;48.58;;;32.88;;
65328;SDS011;51941;52.210;5.158;2023-05-15T07:00:42;43.47;;;33.47;;
65328;SDS011;51941;52.210;5.158;2023-05-15T07:03:08;37.75;;;29.00;;
65328;SDS011;51941;52.210;5.158;2023-05-15T07:05:36;37.67;;;28.63;;
65328;SDS011;51941;52.210;5.158;2023-05-15T07:08:03;40.53;;;29.67;;
65328;SDS011;51941;52.210;5.158;2023-05-15T07:10:30;34.72;;;28.73;;
65328;SDS011;51941;52.210;5.158;2023-05-15T07:12:58;43.90;;;30.25;;
65328;SDS011;51941;52.210;5.158;2023-05-15T07:15:25;34.17;;;28.35;;
65328;SDS011;51941;52.210;5.158;2023-05-15T07:17:52;34.72;;;27.58;;
65328;SDS011;51941;52.210;5.158;2023-05-15T07:20:18;37.22;;;28.25;;
65328;SDS011;51941;52.210;5.158;2023-05-15T07:22:47;35.92;;;27.85;;
65328;SDS011;51941;52.210;5.158;2023-05-15T07:25:13;33.85;;;26.27;;
65328;SDS011;51941;52.210;5.158;2023-05-15T07:27:41;38.30;;;27.25;;
65328;SDS011;51941;52.210;5.158;2023-05-15T07:30:08;39.13;;;27.92;;
65328;SDS011;51941;52.210;5.158;2023-05-15T07:32:35;36.38;;;27.98;;
65328;SDS011;51941;52.210;5.158;2023-05-15T07:35:05;35.42;;;27.55;;
65328;SDS011;51941;52.210;5.158;2023-05-15T07:37:32;38.17;;;27.23;;
65328;SDS011;51941;52.210;5.158;2023-05-15T07:40:00;36.70;;;27.33;;
65328;SDS011;51941;52.210;5.158;2023-05-15T07:42:27;37.97;;;27.63;;
65328;SDS011;51941;52.210;5.158;2023-05-15T07:44:54;37.83;;;28.35;;
65328;SDS011;51941;52.210;5.158;2023-05-15T07:47:20;37.35;;;27.02;;
65328;SDS011;51941;52.210;5.158;2023-05-15T07:49:47;32.05;;;25.38;;
65328;SDS011;51941;52.210;5.158;2023-05-15T07:52:14;30.40;;;23.98;;
65328;SDS011;51941;52.210;5.158;2023-05-15T07:54:40;33.28;;;25.00;;
65328;SDS011;51941;52.210;5.158;2023-05-15T07:57:08;30.08;;;24.27;;
65328;SDS011;51941;52.210;5.158;2023-05-15T08:02:03;30.90;;;24.67;;
65328;SDS011;51941;52.210;5.158;2023-05-15T08:04:30;30.98;;;25.20;;
65328;SDS011;51941;52.210;5.158;2023-05-15T08:06:56;35.28;;;27.05;;
65328;SDS011;51941;52.210;5.158;2023-05-15T08:09:23;32.63;;;26.10;;
65328;SDS011;51941;52.210;5.158;2023-05-15T08:11:50;37.35;;;26.95;;
65328;SDS011;51941;52.210;5.158;2023-05-15T08:14:18;35.35;;;24.20;;
65328;SDS011;51941;52.210;5.158;2023-05-15T08:16:44;34.55;;;26.55;;
65328;SDS011;51941;52.210;5.158;2023-05-15T08:19:11;31.92;;;24.38;;
65328;SDS011;51941;52.210;5.158;2023-05-15T08:21:38;29.17;;;23.75;;
65328;SDS011;51941;52.210;5.158;2023-05-15T08:24:05;30.80;;;22.85;;
65328;SDS011;51941;52.210;5.158;2023-05-15T08:26:32;30.83;;;23.27;;
65328;SDS011;51941;52.210;5.158;2023-05-15T08:28:59;27.35;;;22.42;;
65328;SDS011;51941;52.210;5.158;2023-05-15T08:31:27;33.58;;;25.98;;
65328;SDS011;51941;52.210;5.158;2023-05-15T08:33:57;34.83;;;26.15;;
65328;SDS011;51941;52.210;5.158;2023-05-15T08:36:23;35.58;;;26.98;;
65328;SDS011;51941;52.210;5.158;2023-05-15T08:38:50;43.80;;;32.20;;
65328;SDS011;51941;52.210;5.158;2023-05-15T08:41:19;40.63;;;31.30;;
65328;SDS011;51941;52.210;5.158;2023-05-15T08:43:50;35.28;;;28.98;;
65328;SDS011;51941;52.210;5.158;2023-05-15T08:46:20;35.30;;;27.92;;
65328;SDS011;51941;52.210;5.158;2023-05-15T08:48:50;40.67;;;28.60;;
65328;SDS011;51941;52.210;5.158;2023-05-15T08:51:18;38.20;;;28.45;;
65328;SDS011;51941;52.210;5.158;2023-05-15T08:53:45;36.35;;;28.08;;
65328;SDS011;51941;52.210;5.158;2023-05-15T08:56:13;37.08;;;28.25;;
65328;SDS011;51941;52.210;5.158;2023-05-15T08:58:39;37.28;;;29.42;;
65328;SDS011;51941;52.210;5.158;2023-05-15T09:01:07;41.28;;;28.98;;
65328;SDS011;51941;52.210;5.158;2023-05-15T09:03:35;45.78;;;31.85;;
65328;SDS011;51941;52.210;5.158;2023-05-15T09:06:03;38.15;;;28.45;;
65328;SDS011;51941;52.210;5.158;2023-05-15T09:10:58;39.55;;;29.00;;
65328;SDS011;51941;52.210;5.158;2023-05-15T09:13:28;38.30;;;26.90;;
65328;SDS011;51941;52.210;5.158;2023-05-15T09:15:54;40.10;;;30.05;;
65328;SDS011;51941;52.210;5.158;2023-05-15T09:18:21;39.28;;;28.85;;
65328;SDS011;51941;52.210;5.158;2023-05-15T09:20:48;41.05;;;28.70;;
65328;SDS011;51941;52.210;5.158;2023-05-15T09:23:24;44.72;;;30.48;;
65328;SDS011;51941;52.210;5.158;2023-05-15T09:25:52;45.10;;;31.35;;
65328;SDS011;51941;52.210;5.158;2023-05-15T09:28:24;47.15;;;33.03;;
65328;SDS011;51941;52.210;5.158;2023-05-15T09:30:56;54.42;;;34.53;;
65328;SDS011;51941;52.210;5.158;2023-05-15T09:33:30;52.25;;;34.47;;
65328;SDS011;51941;52.210;5.158;2023-05-15T09:35:57;56.22;;;36.80;;
65328;SDS011;51941;52.210;5.158;2023-05-15T09:38:25;53.67;;;35.75;;
65328;SDS011;51941;52.210;5.158;2023-05-15T09:41:02;52.78;;;34.75;;
65328;SDS011;51941;52.210;5.158;2023-05-15T09:43:35;54.63;;;36.35;;
65328;SDS011;51941;52.210;5.158;2023-05-15T09:46:03;57.53;;;36.42;;
65328;SDS011;51941;52.210;5.158;2023-05-15T09:48:30;61.60;;;38.50;;
65328;SDS011;51941;52.210;5.158;2023-05-15T09:50:58;57.33;;;37.55;;
65328;SDS011;51941;52.210;5.158;2023-05-15T09:53:27;58.65;;;38.90;;
65328;SDS011;51941;52.210;5.158;2023-05-15T09:55:54;53.70;;;35.87;;
65328;SDS011;51941;52.210;5.158;2023-05-15T09:58:21;48.72;;;32.55;;
65328;SDS011;51941;52.210;5.158;2023-05-15T10:00:50;49.08;;;32.17;;
65328;SDS011;51941;52.210;5.158;2023-05-15T10:03:17;40.83;;;27.95;;
65328;SDS011;51941;52.210;5.158;2023-05-15T10:05:45;41.53;;;26.35;;
65328;SDS011;51941;52.210;5.158;2023-05-15T10:08:12;43.75;;;26.45;;
65328;SDS011;51941;52.210;5.158;2023-05-15T10:10:41;39.08;;;26.73;;
65328;SDS011;51941;52.210;5.158;2023-05-15T10:13:08;35.78;;;24.02;;
65328;SDS011;51941;52.210;5.158;2023-05-15T10:15:36;36.10;;;25.35;;
65328;SDS011;51941;52.210;5.158;2023-05-15T10:18:04;36.42;;;25.83;;
65328;SDS011;51941;52.210;5.158;2023-05-15T10:20:32;32.10;;;24.50;;
65328;SDS011;51941;52.210;5.158;2023-05-15T10:23:01;33.25;;;24.17;;
65328;SDS011;51941;52.210;5.158;2023-05-15T10:25:32;34.28;;;24.17;;
65328;SDS011;51941;52.210;5.158;2023-05-15T10:28:04;34.80;;;24.83;;
65328;SDS011;51941;52.210;5.158;2023-05-15T10:30:34;31.00;;;23.20;;
65328;SDS011;51941;52.210;5.158;2023-05-15T10:33:02;32.10;;;22.35;;
65328;SDS011;51941;52.210;5.158;2023-05-15T10:35:30;33.85;;;24.45;;
65328;SDS011;51941;52.210;5.158;2023-05-15T10:37:57;30.48;;;22.70;;
65328;SDS011;51941;52.210;5.158;2023-05-15T10:40:25;34.80;;;22.58;;
65328;SDS011;51941;52.210;5.158;2023-05-15T10:42:53;29.33;;;22.05;;
65328;SDS011;51941;52.210;5.158;2023-05-15T10:45:23;31.35;;;22.35;;
65328;SDS011;51941;52.210;5.158;2023-05-15T10:47:50;35.42;;;22.80;;
65328;SDS011;51941;52.210;5.158;2023-05-15T10:50:18;32.50;;;24.23;;
65328;SDS011;51941;52.210;5.158;2023-05-15T10:52:45;29.42;;;21.50;;
65328;SDS011;51941;52.210;5.158;2023-05-15T10:55:12;27.33;;;21.55;;
65328;SDS011;51941;52.210;5.158;2023-05-15T10:57:41;28.35;;;20.63;;
65328;SDS011;51941;52.210;5.158;2023-05-15T11:03:04;32.53;;;24.20;;
65328;SDS011;51941;52.210;5.158;2023-05-15T11:05:31;29.83;;;22.42;;
65328;SDS011;51941;52.210;5.158;2023-05-15T11:08:34;27.02;;;22.85;;
65328;SDS011;51941;52.210;5.158;2023-05-15T11:11:00;26.00;;;21.75;;
65328;SDS011;51941;52.210;5.158;2023-05-15T11:13:34;30.27;;;22.17;;
65328;SDS011;51941;52.210;5.158;2023-05-15T11:16:56;26.02;;;21.10;;
65328;SDS011;51941;52.210;5.158;2023-05-15T11:22:27;25.13;;;19.83;;
65328;SDS011;51941;52.210;5.158;2023-05-15T11:24:57;26.65;;;18.17;;
65328;SDS011;51941;52.210;5.158;2023-05-15T11:30:04;20.25;;;16.05;;
65328;SDS011;51941;52.210;5.158;2023-05-15T11:32:53;20.33;;;17.25;;
65328;SDS011;51941;52.210;5.158;2023-05-15T11:37:52;25.45;;;17.60;;
65328;SDS011;51941;52.210;5.158;2023-05-15T11:40:22;19.95;;;17.20;;
65328;SDS011;51941;52.210;5.158;2023-05-15T11:42:57;24.98;;;19.27;;
65328;SDS011;51941;52.210;5.158;2023-05-15T11:45:28;20.52;;;17.02;;
65328;SDS011;51941;52.210;5.158;2023-05-15T11:47:56;18.20;;;15.50;;
65328;SDS011;51941;52.210;5.158;2023-05-15T11:50:27;16.48;;;14.60;;
65328;SDS011;51941;52.210;5.158;2023-05-15T11:52:56;14.98;;;13.40;;
65328;SDS011;51941;52.210;5.158;2023-05-15T11:55:23;15.30;;;12.93;;
65328;SDS011;51941;52.210;5.158;2023-05-15T11:57:50;15.13;;;12.98;;
65328;SDS011;51941;52.210;5.158;2023-05-15T12:00:17;14.45;;;12.13;;
65328;SDS011;51941;52.210;5.158;2023-05-15T12:02:44;16.95;;;13.40;;
65328;SDS011;51941;52.210;5.158;2023-05-15T12:05:10;18.80;;;12.23;;
65328;SDS011;51941;52.210;5.158;2023-05-15T12:07:40;13.90;;;12.45;;
65328;SDS011;51941;52.210;5.158;2023-05-15T12:10:09;16.55;;;12.15;;
65328;SDS011;51941;52.210;5.158;2023-05-15T12:12:38;12.77;;;11.43;;
65328;SDS011;51941;52.210;5.158;2023-05-15T12:15:07;15.48;;;11.73;;
65328;SDS011;51941;52.210;5.158;2023-05-15T12:17:35;14.52;;;11.40;;
65328;SDS011;51941;52.210;5.158;2023-05-15T12:20:03;13.23;;;11.82;;
65328;SDS011;51941;52.210;5.158;2023-05-15T12:22:36;19.70;;;10.93;;
65328;SDS011;51941;52.210;5.158;2023-05-15T12:25:05;13.65;;;11.00;;
65328;SDS011;51941;52.210;5.158;2023-05-15T12:27:33;18.30;;;11.55;;
65328;SDS011;51941;52.210;5.158;2023-05-15T12:30:00;15.25;;;12.63;;
65328;SDS011;51941;52.210;5.158;2023-05-15T12:32:29;15.85;;;12.45;;
65328;SDS011;51941;52.210;5.158;2023-05-15T12:34:57;16.35;;;13.10;;
65328;SDS011;51941;52.210;5.158;2023-05-15T12:37:29;16.20;;;11.85;;
65328;SDS011;51941;52.210;5.158;2023-05-15T12:39:58;18.63;;;11.80;;
65328;SDS011;51941;52.210;5.158;2023-05-15T12:42:37;17.63;;;11.50;;
65328;SDS011;51941;52.210;5.158;2023-05-15T12:45:10;16.48;;;11.77;;
65328;SDS011;51941;52.210;5.158;2023-05-15T12:47:39;15.80;;;11.57;;
65328;SDS011;51941;52.210;5.158;2023-05-15T12:50:10;18.77;;;11.98;;
65328;SDS011;51941;52.210;5.158;2023-05-15T12:52:39;22.20;;;13.52;;
65328;SDS011;51941;52.210;5.158;2023-05-15T12:55:06;18.88;;;12.77;;
65328;SDS011;51941;52.210;5.158;2023-05-15T12:57:33;22.88;;;14.98;;
65328;SDS011;51941;52.210;5.158;2023-05-15T13:00:02;25.15;;;16.92;;
65328;SDS011;51941;52.210;5.158;2023-05-15T13:02:29;25.27;;;16.77;;
65328;SDS011;51941;52.210;5.158;2023-05-15T13:04:56;23.52;;;16.67;;
65328;SDS011;51941;52.210;5.158;2023-05-15T13:07:23;23.20;;;16.08;;
65328;SDS011;51941;52.210;5.158;2023-05-15T13:10:00;25.75;;;17.23;;
65328;SDS011;51941;52.210;5.158;2023-05-15T13:12:33;23.17;;;16.05;;
65328;SDS011;51941;52.210;5.158;2023-05-15T13:15:02;24.27;;;17.33;;
65328;SDS011;51941;52.210;5.158;2023-05-15T13:17:29;22.65;;;16.92;;
65328;SDS011;51941;52.210;5.158;2023-05-15T13:19:55;23.15;;;15.80;;
65328;SDS011;51941;52.210;5.158;2023-05-15T13:22:22;22.63;;;15.27;;
65328;SDS011;51941;52.210;5.158;2023-05-15T13:24:50;22.65;;;15.10;;
65328;SDS011;51941;52.210;5.158;2023-05-15T13:27:17;20.83;;;14.52;;
65328;SDS011;51941;52.210;5.158;2023-05-15T13:29:44;17.73;;;12.68;;
65328;SDS011;51941;52.210;5.158;2023-05-15T13:32:12;16.17;;;11.75;;
65328;SDS011;51941;52.210;5.158;2023-05-15T13:34:38;14.98;;;11.88;;
65328;SDS011;51941;52.210;5.158;2023-05-15T13:37:05;15.35;;;11.55;;
65328;SDS011;51941;52.210;5.158;2023-05-15T13:39:32;12.32;;;10.38;;
65328;SDS011;51941;52.210;5.158;2023-05-15T13:41:59;13.13;;;8.80;;
65328;SDS011;51941;52.210;5.158;2023-05-15T13:44:25;11.48;;;8.88;;
65328;SDS011;51941;52.210;5.158;2023-05-15T13:46:52;9.32;;;7.90;;
65328;SDS011;51941;52.210;5.158;2023-05-15T13:49:20;14.27;;;8.63;;
65328;SDS011;51941;52.210;5.158;2023-05-15T13:51:47;12.20;;;8.93;;
65328;SDS011;51941;52.210;5.158;2023-05-15T13:54:13;15.05;;;9.90;;
65328;SDS011;51941;52.210;5.158;2023-05-15T13:56:40;13.13;;;9.50;;
65328;SDS011;51941;52.210;5.158;2023-05-15T13:59:06;14.02;;;9.15;;
65328;SDS011;51941;52.210;5.158;2023-05-15T14:01:33;12.75;;;8.70;;
65328;SDS011;51941;52.210;5.158;2023-05-15T14:04:00;11.55;;;7.85;;
65328;SDS011;51941;52.210;5.158;2023-05-15T14:06:28;11.57;;;6.80;;
65328;SDS011;51941;52.210;5.158;2023-05-15T14:08:55;12.80;;;5.97;;
65328;SDS011;51941;52.210;5.158;2023-05-15T14:11:22;10.98;;;5.60;;
65328;SDS011;51941;52.210;5.158;2023-05-15T14:13:48;10.65;;;6.07;;
65328;SDS011;51941;52.210;5.158;2023-05-15T14:16:15;10.23;;;5.88;;
65328;SDS011;51941;52.210;5.158;2023-05-15T14:18:42;15.73;;;7.50;;
65328;SDS011;51941;52.210;5.158;2023-05-15T14:21:08;13.23;;;7.63;;
65328;SDS011;51941;52.210;5.158;2023-05-15T14:23:36;15.63;;;8.98;;
65328;SDS011;51941;52.210;5.158;2023-05-15T14:26:03;13.43;;;8.30;;
65328;SDS011;51941;52.210;5.158;2023-05-15T14:28:30;14.15;;;7.88;;
65328;SDS011;51941;52.210;5.158;2023-05-15T14:30:56;18.58;;;8.30;;
65328;SDS011;51941;52.210;5.158;2023-05-15T14:33:23;12.95;;;8.05;;
65328;SDS011;51941;52.210;5.158;2023-05-15T14:35:50;12.60;;;8.65;;
65328;SDS011;51941;52.210;5.158;2023-05-15T14:38:17;13.13;;;8.57;;
65328;SDS011;51941;52.210;5.158;2023-05-15T14:40:45;13.02;;;8.10;;
65328;SDS011;51941;52.210;5.158;2023-05-15T14:43:11;12.75;;;7.38;;
65328;SDS011;51941;52.210;5.158;2023-05-15T14:45:38;10.35;;;7.50;;
65328;SDS011;51941;52.210;5.158;2023-05-15T14:48:05;9.27;;;6.72;;
65328;SDS011;51941;52.210;5.158;2023-05-15T14:50:32;8.10;;;5.50;;
65328;SDS011;51941;52.210;5.158;2023-05-15T14:52:59;8.52;;;4.45;;